WetterOnline ( https://www.wetteronline.de )

Wetter aktuell Bremerhaven

Aktuelles Wetter: Bremerhaven (11m)

6-stündlich | Neueste Meldungen
Ortszeit Temperatur Wetter
Mo, 09.12. 7:00 5.7° C wolkig
Mo, 09.12. 1:00 6.2° C leicht bewölkt
So, 08.12. 19:00 7.7° C Sprühregen
So, 08.12. 13:00 9.3° C bedeckt
So, 08.12. 7:00 8.5° C bedeckt
So, 08.12. 1:00 7.8° C bedeckt
Sa, 07.12. 19:00 8.5° C bedeckt
Sa, 07.12. 13:00 9.1° C bedeckt
Ortszeit Temperatur Wetter
Mo, 09.12. 9:30 6.7° C bedeckt
Mo, 09.12. 9:20 6.7° C bedeckt
Mo, 09.12. 9:10 6.7° C bedeckt
Mo, 09.12. 9:00 6.7° C bedeckt
Mo, 09.12. 8:50 6.7° C bedeckt
Mo, 09.12. 8:40 6.7° C bedeckt
Mo, 09.12. 8:30 6.7° C bewölkt
Mo, 09.12. 8:00 6.3° C bedeckt
Mo, 09.12. 7:30 5.8° C wolkig
Mo, 09.12. 7:00 5.7° C wolkig
Mo, 09.12. 6:30 5.8° C wolkig
Ortszeit Relative Feuchte Sichtweite
Mo, 09.12. 7:00 85% -
Mo, 09.12. 1:00 84% 35 km
So, 08.12. 19:00 74% 12 km
So, 08.12. 13:00 89% 30 km
So, 08.12. 7:00 78% 35 km
So, 08.12. 1:00 84% 30 km
Sa, 07.12. 19:00 88% 20 km
Sa, 07.12. 13:00 83% 30 km
Ortszeit Relative Feuchte Sichtweite
Mo, 09.12. 9:30 84% 25 km
Mo, 09.12. 9:20 84% -
Mo, 09.12. 9:10 84% -
Mo, 09.12. 9:00 84% 25 km
Mo, 09.12. 8:50 84% -
Mo, 09.12. 8:40 83% -
Mo, 09.12. 8:30 83% 25 km
Mo, 09.12. 8:00 85% 23 km
Mo, 09.12. 7:30 86% 25 km
Mo, 09.12. 7:00 85% -
Mo, 09.12. 6:30 86% 23 km
Ortszeit Niederschlagsmenge Niederschlagsart
Mo, 09.12. 7:00 1 l/m2 in 12 Std. Regen
Mo, 09.12. 1:00 1 l/m2 in 6 Std. Regen
So, 08.12. 19:00 1 l/m2 in 12 Std. Regen
So, 08.12. 13:00 0.8 l/m2 in 6 Std. Regen
So, 08.12. 7:00 0.1 l/m2 in 12 Std. -
So, 08.12. 1:00 0.1 l/m2 in 6 Std. Regen
Sa, 07.12. 19:00 0.5 l/m2 in 12 Std. Regen
Sa, 07.12. 13:00 0.1 l/m2 in 6 Std. Regen
Ortszeit Niederschlagsmenge Niederschlagsart
Mo, 09.12. 9:30 0.0 l/m2 in 1 Std. -
Mo, 09.12. 9:20 keine Meldung -
Mo, 09.12. 9:10 keine Meldung -
Mo, 09.12. 9:00 0.0 l/m2 in 1 Std. -
Mo, 09.12. 8:50 keine Meldung -
Mo, 09.12. 8:40 keine Meldung -
Mo, 09.12. 8:30 0.0 l/m2 in 1 Std. -
Mo, 09.12. 8:00 0.0 l/m2 in 1 Std. -
Mo, 09.12. 7:30 0.0 l/m2 in 1 Std. -
Mo, 09.12. 7:00 0.0 l/m2 in 1 Std. Regen
Mo, 09.12. 6:30 0.0 l/m2 in 1 Std. -
Ortszeit Stärke Spitze Richtung
km/h Bft. km/h Grad Sektor
Mo, 09.12. 7:00 28 4 52 200° S
Mo, 09.12. 1:00 43 6 74 220° SW
So, 08.12. 19:00 43 6 65 240° SW
So, 08.12. 13:00 47 6 72 230° SW
So, 08.12. 7:00 50 6 70 220° SW
So, 08.12. 1:00 33 5 43 210° SW
Sa, 07.12. 19:00 29 5 50 240° SW
Sa, 07.12. 13:00 43 6 54 260° W
Ortszeit Stärke Spitze Richtung
km/h Bft. km/h Grad Sektor
Mo, 09.12. 9:30 28 4 35 220° SW
Mo, 09.12. 9:20 28 4 - 220° SW
Mo, 09.12. 9:10 28 4 - 220° SW
Mo, 09.12. 9:00 28 4 37 220° SW
Mo, 09.12. 8:50 28 4 - 220° SW
Mo, 09.12. 8:40 29 5 - 220° SW
Mo, 09.12. 8:30 28 4 37 210° SW
Mo, 09.12. 8:00 26 4 35 210° SW
Mo, 09.12. 7:30 28 4 35 200° S
Mo, 09.12. 7:00 28 4 41 200° S
Mo, 09.12. 6:30 29 5 43 200° S
Ortszeit Untergrenze Bedeckung Gattung
total tief tief mittel hoch
Mo, 09.12. 7:00 600 m 5/8 5/8 - - -
Mo, 09.12. 1:00 1200 m 4/8 2/8 - - -
So, 08.12. 19:00 750 m 7/8 7/8 - - -
So, 08.12. 13:00 450 m 8/8 8/8 - - -
So, 08.12. 7:00 690 m 8/8 8/8 - - -
So, 08.12. 1:00 660 m 8/8 8/8 - - -
Sa, 07.12. 19:00 420 m 8/8 8/8 - - -
Sa, 07.12. 13:00 510 m 8/8 8/8 - - -
Ortszeit Bedeckungsgrad in Achtel und Wolkenuntergrenze
Mo, 09.12. 9:30 7(690m) 7(870m) 8(1050m)
Mo, 09.12. 9:20 7(690m) 7(870m) 8(1050m)
Mo, 09.12. 9:10 4(690m) 6(870m) 8(1050m)
Mo, 09.12. 9:00 4(660m) 6(870m) 8(1020m)
Mo, 09.12. 8:50 4(660m) 6(870m) 8(1020m)
Mo, 09.12. 8:40 5(660m) 8(840m)
Mo, 09.12. 8:30 7(630m)
Mo, 09.12. 8:00 3(660m) 7(870m) 8(1020m)
Mo, 09.12. 7:30 5(780m)
Mo, 09.12. 7:00 3(600m) 5(1380m)
Mo, 09.12. 6:30 2(630m) 6(1500m)
Ortszeit Luftdruck NN (hPa) Tendenz (hPa in 3 Std.)
Mo, 09.12. 7:00 993 + 0,1
Mo, 09.12. 1:00 993 - 0,5
So, 08.12. 19:00 994 0,0
So, 08.12. 13:00 994 - 2,0
So, 08.12. 7:00 998 - 4,5
So, 08.12. 1:00 1007 - 2,2
Sa, 07.12. 19:00 1010 + 1,0
Sa, 07.12. 13:00 1007 + 1,3
Ortszeit Luftdruck NN (hPa) Tendenz (hPa in 3 Std.)
Mo, 09.12. 9:30 994 + 1,2
Mo, 09.12. 9:20 994 keine Meldung
Mo, 09.12. 9:10 994 keine Meldung
Mo, 09.12. 9:00 994 + 1,1
Mo, 09.12. 8:50 994 keine Meldung
Mo, 09.12. 8:40 994 keine Meldung
Mo, 09.12. 8:30 993 + 0,7
Mo, 09.12. 8:00 993 + 0,5
Mo, 09.12. 7:30 993 + 0,3
Mo, 09.12. 7:00 993 + 0,1
Mo, 09.12. 6:30 993 - 0,1
Ortszeit Schneehöhe (cm)
Mo, 09.12. 7:00 0
Mo, 09.12. 1:00 0
So, 08.12. 19:00 0
So, 08.12. 13:00 0
So, 08.12. 7:00 0
So, 08.12. 1:00 0
Sa, 07.12. 19:00 0
Sa, 07.12. 13:00 0
Ortszeit Schneehöhe (cm)
Mo, 09.12. 9:30 0
Mo, 09.12. 9:20 0
Mo, 09.12. 9:10 0
Mo, 09.12. 9:00 0
Mo, 09.12. 8:50 0
Mo, 09.12. 8:40 0
Mo, 09.12. 8:30 0
Mo, 09.12. 8:00 0
Mo, 09.12. 7:30 0
Mo, 09.12. 7:00 0
Mo, 09.12. 6:30 0
Link zu dieser Seite / Seite empfehlen

Das Wetter in ...